createdAt,value
2019-04-22T00:00:37.221Z,44.80
2019-04-22T00:03:09.168Z,44.70
2019-04-22T00:05:55.199Z,44.70
2019-04-22T00:08:29.533Z,44.80
2019-04-22T00:11:04.999Z,44.80
2019-04-22T00:13:37.071Z,44.80
2019-04-22T00:15:55.948Z,44.80
2019-04-22T00:18:50.543Z,45.40
2019-04-22T00:21:04.502Z,44.80
2019-04-22T00:23:31.418Z,44.80
2019-04-22T00:26:05.227Z,44.80
2019-04-22T00:28:36.610Z,44.90
2019-04-22T00:31:04.565Z,44.90
2019-04-22T00:33:35.489Z,44.90
2019-04-22T00:36:02.686Z,44.90
2019-04-22T00:38:51.597Z,44.80
2019-04-22T00:41:05.777Z,44.80
2019-04-22T00:43:37.534Z,44.90
2019-04-22T00:46:02.198Z,44.90
2019-04-22T00:48:32.269Z,44.90
2019-04-22T00:51:06.136Z,44.90
2019-04-22T00:53:37.121Z,44.80
2019-04-22T00:56:17.188Z,44.90
2019-04-22T00:58:41.299Z,44.80
2019-04-22T01:01:17.047Z,44.80
2019-04-22T01:03:50.265Z,44.90
2019-04-22T01:06:16.216Z,44.90
2019-04-22T01:08:49.335Z,44.90
2019-04-22T01:11:17.259Z,44.90
2019-04-22T01:13:47.003Z,44.90
2019-04-22T01:16:20.494Z,44.90
2019-04-22T01:18:46.238Z,44.90
2019-04-22T01:21:25.576Z,44.90
2019-04-22T01:23:44.501Z,45.00
2019-04-22T01:26:12.541Z,45.10
2019-04-22T01:28:34.226Z,45.10
2019-04-22T01:31:00.078Z,45.10
2019-04-22T01:33:30.634Z,45.10
2019-04-22T01:36:12.228Z,45.00
2019-04-22T01:38:45.644Z,45.00
2019-04-22T01:41:16.854Z,45.00
2019-04-22T01:43:56.794Z,45.00
2019-04-22T01:46:16.906Z,45.60
2019-04-22T01:48:47.210Z,45.00
2019-04-22T01:51:22.581Z,45.00
2019-04-22T01:53:50.427Z,45.00
2019-04-22T01:56:20.602Z,45.00
2019-04-22T01:58:38.115Z,45.00
2019-04-22T02:01:22.142Z,45.00
2019-04-22T02:03:46.756Z,45.00
2019-04-22T02:06:22.125Z,45.10
2019-04-22T02:08:53.314Z,45.20
2019-04-22T02:11:26.659Z,45.10
2019-04-22T02:13:52.270Z,45.10
2019-04-22T02:16:20.089Z,45.20
2019-04-22T02:18:52.418Z,45.30
2019-04-22T02:21:13.828Z,45.30
2019-04-22T02:26:23.795Z,45.40
2019-04-22T02:31:25.924Z,45.30
2019-04-22T02:36:29.124Z,45.40
2019-04-22T02:44:01.325Z,45.40
2019-04-22T03:04:03.338Z,45.30
2019-04-22T03:09:01.166Z,45.40
2019-04-22T03:13:55.158Z,45.40
2019-04-22T03:16:26.061Z,45.30
2019-04-22T03:21:27.626Z,45.40
2019-04-22T03:26:27.452Z,45.50
2019-04-22T03:37:03.702Z,45.70
2019-04-22T03:39:17.953Z,45.60
2019-04-22T03:42:02.487Z,45.70
2019-04-22T03:44:18.887Z,45.70
2019-04-22T03:46:30.166Z,45.70
2019-04-22T03:49:12.089Z,45.60
2019-04-22T03:59:12.105Z,45.60
2019-04-22T04:01:39.843Z,45.50
2019-04-22T04:04:09.016Z,45.50
2019-04-22T04:06:39.663Z,45.40
2019-04-22T04:08:58.933Z,45.40
2019-04-22T04:11:45.507Z,45.40
2019-04-22T04:14:11.947Z,45.40
2019-04-22T04:16:35.271Z,45.40
2019-04-22T04:21:33.160Z,45.60
2019-04-22T04:24:19.836Z,45.80
2019-04-22T04:26:45.587Z,45.80
2019-04-22T04:29:21.444Z,45.70
2019-04-22T04:31:37.882Z,45.60
2019-04-22T04:34:06.370Z,45.50
2019-04-22T04:39:01.022Z,45.70
2019-04-22T04:41:34.206Z,45.80
2019-04-22T04:44:10.834Z,45.90
2019-04-22T04:46:53.920Z,45.90
2019-04-22T04:51:33.017Z,45.90
2019-04-22T04:54:13.250Z,45.90
2019-04-22T05:04:04.984Z,46.20
2019-04-22T05:19:11.187Z,46.30
2019-04-22T05:21:21.812Z,46.00
2019-04-22T05:24:03.800Z,46.40
2019-04-22T05:29:03.800Z,47.50
2019-04-22T05:31:32.216Z,47.30
2019-04-22T05:33:56.756Z,46.50
2019-04-22T05:36:28.507Z,46.20
2019-04-22T05:39:01.803Z,46.10
2019-04-22T05:41:30.537Z,46.10
2019-04-22T05:43:58.247Z,46.20
2019-04-22T05:46:28.585Z,46.20
2019-04-22T05:49:01.076Z,46.30
2019-04-22T05:51:31.235Z,46.30
2019-04-22T05:54:01.537Z,46.30
2019-04-22T05:56:34.264Z,46.40
2019-04-22T05:58:58.827Z,46.50
2019-04-22T06:01:38.807Z,46.60
2019-04-22T06:04:08.771Z,46.60
2019-04-22T06:06:22.574Z,46.60
2019-04-22T06:08:57.611Z,46.70
2019-04-22T06:11:33.992Z,46.80
2019-04-22T06:13:56.078Z,46.80
2019-04-22T06:20:00.312Z,46.80
2019-04-22T06:22:38.245Z,47.00
2019-04-22T06:25:01.007Z,47.00
2019-04-22T06:27:28.863Z,47.00
2019-04-22T06:29:53.687Z,47.00
2019-04-22T06:35:01.899Z,46.90
2019-04-22T06:37:36.674Z,47.00
2019-04-22T06:39:58.844Z,47.00
2019-04-22T06:42:28.410Z,47.10
2019-04-22T06:45:02.733Z,47.00
2019-04-22T06:49:55.466Z,47.10
2019-04-22T06:52:22.013Z,47.10
2019-04-22T06:55:05.982Z,47.10
2019-04-22T06:57:25.364Z,47.10
2019-04-22T07:00:00.451Z,47.20
2019-04-22T07:02:38.986Z,47.20
2019-04-22T07:04:56.406Z,47.30
2019-04-22T07:07:23.791Z,47.30
2019-04-22T07:10:23.673Z,47.30
2019-04-22T07:12:29.049Z,47.30
2019-04-22T07:17:20.607Z,47.40
2019-04-22T07:20:02.116Z,47.30
2019-04-22T07:22:40.372Z,47.30
2019-04-22T07:24:58.925Z,47.30
2019-04-22T07:27:32.868Z,47.30
2019-04-22T07:30:03.541Z,47.30
2019-04-22T07:32:53.604Z,47.30
2019-04-22T07:35:04.103Z,47.40
2019-04-22T07:37:43.889Z,47.50
2019-04-22T07:39:58.335Z,47.40
2019-04-22T07:42:31.037Z,47.40
2019-04-22T07:45:05.015Z,47.40
2019-04-22T07:47:32.346Z,47.40
2019-04-22T07:50:05.478Z,48.00
2019-04-22T07:52:35.435Z,47.50
2019-04-22T07:57:33.317Z,47.50
2019-04-22T08:02:37.930Z,47.50
2019-04-22T08:10:12.515Z,47.50
2019-04-22T08:15:00.070Z,47.70
2019-04-22T08:17:52.105Z,47.60
2019-04-22T08:20:07.042Z,47.60
2019-04-22T08:22:39.942Z,47.70
2019-04-22T08:25:01.318Z,47.80
2019-04-22T08:27:31.446Z,47.70
2019-04-22T08:30:06.482Z,47.70
2019-04-22T08:32:39.834Z,47.70
2019-04-22T08:35:04.861Z,47.70
2019-04-22T08:40:09.558Z,47.70
2019-04-22T08:42:43.586Z,47.70
2019-04-22T08:45:18.858Z,47.70
2019-04-22T08:52:38.592Z,47.90
2019-04-22T08:55:08.139Z,47.90
2019-04-22T08:57:55.069Z,47.90
2019-04-22T09:00:02.482Z,47.90
2019-04-22T09:02:36.898Z,48.00
2019-04-22T09:05:00.130Z,48.10
2019-04-22T09:07:31.539Z,48.00
2019-04-22T09:10:05.223Z,47.90
2019-04-22T09:12:46.950Z,47.80
2019-04-22T09:15:01.141Z,47.80
2019-04-22T09:17:34.600Z,48.00
2019-04-22T09:20:06.761Z,48.00
2019-04-22T09:22:38.664Z,48.00
2019-04-22T09:25:00.429Z,48.10
2019-04-22T09:27:41.378Z,48.10
2019-04-22T09:30:09.128Z,48.10
2019-04-22T09:32:38.595Z,48.10
2019-04-22T09:35:15.849Z,48.10
2019-04-22T09:37:38.982Z,48.00
2019-04-22T09:40:13.622Z,48.10
2019-04-22T09:42:39.684Z,48.10
2019-04-22T09:45:06.139Z,48.10
2019-04-22T09:47:40.079Z,48.10
2019-04-22T09:52:35.883Z,48.00
2019-04-22T09:55:12.911Z,48.00
2019-04-22T09:57:33.486Z,48.10
2019-04-22T10:02:55.395Z,48.20
2019-04-22T10:05:07.751Z,48.30
2019-04-22T10:07:31.823Z,48.30
2019-04-22T10:10:10.848Z,48.30
2019-04-22T10:12:36.939Z,48.30
2019-04-22T10:15:11.574Z,48.20
2019-04-22T10:17:40.237Z,48.10
2019-04-22T10:23:44.990Z,48.20
2019-04-22T10:26:26.558Z,48.10
2019-04-22T10:28:53.242Z,48.00
2019-04-22T10:31:23.857Z,48.00
2019-04-22T10:33:42.248Z,48.00
2019-04-22T10:35:52.800Z,48.10
2019-04-22T10:38:22.068Z,48.20
2019-04-22T10:40:52.438Z,48.20
2019-04-22T10:43:21.143Z,48.10
2019-04-22T10:45:50.281Z,48.10
2019-04-22T10:48:18.759Z,48.10
2019-04-22T10:50:48.752Z,48.10
2019-04-22T10:53:17.700Z,48.10
2019-04-22T10:55:47.711Z,48.00
2019-04-22T10:58:16.982Z,48.00
2019-04-22T11:00:47.203Z,48.10
2019-04-22T11:03:16.301Z,48.00
2019-04-22T11:05:44.640Z,47.90
2019-04-22T11:08:22.549Z,47.90
2019-04-22T11:11:00.681Z,47.90
2019-04-22T11:13:15.801Z,48.10
2019-04-22T11:15:44.836Z,48.10
2019-04-22T11:18:13.457Z,48.10
2019-04-22T11:20:41.966Z,48.00
2019-04-22T11:23:10.913Z,47.90
2019-04-22T11:25:39.677Z,47.80
2019-04-22T11:28:09.634Z,48.50
2019-04-22T11:30:38.783Z,47.90
2019-04-22T11:33:08.575Z,48.10
2019-04-22T11:35:37.604Z,48.10
2019-04-22T11:38:06.628Z,48.00
2019-04-22T11:40:41.720Z,47.80
2019-04-22T11:43:06.118Z,47.90
2019-04-22T11:45:35.419Z,48.00
2019-04-22T11:48:03.769Z,47.90
2019-04-22T11:50:33.553Z,47.90
2019-04-22T11:53:02.746Z,47.90
2019-04-22T11:55:31.268Z,47.80
2019-04-22T12:01:42.507Z,47.70
2019-04-22T12:07:53.203Z,47.90
2019-04-22T12:10:30.994Z,48.00
2019-04-22T12:12:53.919Z,48.00
2019-04-22T12:15:24.433Z,47.90
2019-04-22T12:17:53.257Z,47.80
2019-04-22T12:20:22.054Z,47.80
2019-04-22T12:22:53.301Z,47.70
2019-04-22T12:25:33.558Z,47.70
2019-04-22T12:27:52.951Z,47.60
2019-04-22T12:30:21.637Z,48.20
2019-04-22T12:32:50.511Z,47.60
2019-04-22T12:35:19.804Z,47.50
2019-04-22T12:37:54.103Z,47.60
2019-04-22T12:40:30.180Z,47.50
2019-04-22T12:42:49.132Z,47.50
2019-04-22T12:45:20.481Z,47.60
2019-04-22T12:47:50.343Z,47.60
2019-04-22T12:50:27.238Z,48.20
2019-04-22T12:52:55.394Z,47.50
2019-04-22T12:55:19.695Z,47.60
2019-04-22T12:57:48.625Z,47.60
2019-04-22T13:00:18.020Z,47.60
2019-04-22T13:02:47.335Z,47.50
2019-04-22T13:05:16.254Z,47.50
2019-04-22T13:07:45.059Z,47.50
2019-04-22T13:13:42.900Z,47.70
2019-04-22T13:16:13.233Z,47.80
2019-04-22T13:18:48.120Z,47.70
2019-04-22T13:21:12.913Z,47.70
2019-04-22T13:23:41.506Z,47.60
2019-04-22T13:26:10.712Z,47.60
2019-04-22T13:28:39.200Z,47.60
2019-04-22T13:31:07.821Z,47.60
2019-04-22T13:33:36.945Z,47.60
2019-04-22T13:36:06.041Z,47.60
2019-04-22T13:38:35.351Z,47.60
2019-04-22T13:41:18.533Z,47.60
2019-04-22T13:47:14.606Z,47.50
2019-04-22T13:52:40.204Z,47.60
2019-04-22T13:57:19.778Z,47.70
2019-04-22T13:59:41.130Z,47.60
2019-04-22T14:04:59.158Z,47.70
2019-04-22T14:10:26.830Z,47.50
2019-04-22T14:16:24.815Z,47.30
2019-04-22T14:24:44.732Z,47.30
2019-04-22T14:27:25.839Z,47.20
2019-04-22T14:39:02.020Z,47.50
2019-04-22T14:41:40.597Z,47.50
2019-04-22T14:45:05.162Z,47.50
2019-04-22T14:47:02.803Z,47.40
2019-04-22T14:49:23.948Z,47.40
2019-04-22T14:51:55.025Z,47.40
2019-04-22T14:54:21.309Z,47.30
2019-04-22T14:56:34.149Z,47.20
2019-04-22T14:59:02.973Z,47.20
2019-04-22T15:01:32.826Z,47.20
2019-04-22T15:04:02.832Z,47.20
2019-04-22T15:06:31.787Z,47.20
2019-04-22T15:09:01.676Z,47.20
2019-04-22T15:11:42.922Z,47.20
2019-04-22T15:14:01.285Z,47.00
2019-04-22T15:16:38.401Z,47.00
2019-04-22T15:19:09.549Z,47.00
2019-04-22T15:21:38.693Z,47.00
2019-04-22T15:24:27.357Z,46.90
2019-04-22T15:26:56.537Z,46.80
2019-04-22T15:29:25.346Z,46.90
2019-04-22T15:31:55.540Z,47.00
2019-04-22T15:34:24.912Z,47.00
2019-04-22T15:36:54.051Z,47.00
2019-04-22T15:39:23.168Z,46.90
2019-04-22T15:42:00.436Z,46.90
2019-04-22T15:44:21.966Z,46.90
2019-04-22T15:46:51.001Z,46.90
2019-04-22T15:49:20.151Z,46.80
2019-04-22T15:51:49.076Z,46.80
2019-04-22T15:54:17.468Z,46.80
2019-04-22T15:56:46.596Z,46.80
2019-04-22T15:59:30.196Z,46.80
2019-04-22T16:01:46.650Z,46.70
2019-04-22T16:04:16.853Z,46.70
2019-04-22T16:06:45.343Z,46.60
2019-04-22T16:09:15.037Z,46.50
2019-04-22T16:11:43.563Z,46.40
2019-04-22T16:14:17.731Z,46.20
2019-04-22T16:16:43.026Z,46.20
2019-04-22T16:19:12.222Z,46.10
2019-04-22T16:21:51.706Z,46.20
2019-04-22T16:24:29.924Z,46.20
2019-04-22T16:27:00.468Z,46.10
2019-04-22T16:29:29.578Z,46.20
2019-04-22T16:31:58.154Z,46.30
2019-04-22T16:38:08.623Z,46.40
2019-04-22T16:40:38.745Z,46.40
2019-04-22T16:43:09.523Z,46.40
2019-04-22T16:45:37.799Z,46.20
2019-04-22T16:48:07.490Z,46.20
2019-04-22T16:50:38.333Z,46.10
2019-04-22T16:53:06.158Z,46.00
2019-04-22T16:55:34.948Z,45.90
2019-04-22T16:58:05.164Z,45.80
2019-04-22T17:00:34.391Z,45.80
2019-04-22T17:03:16.513Z,45.70
2019-04-22T17:06:03.559Z,45.70
2019-04-22T17:08:32.878Z,45.70
2019-04-22T17:11:01.950Z,45.60
2019-04-22T17:13:32.818Z,45.70
2019-04-22T17:16:02.278Z,45.70
2019-04-22T17:18:31.014Z,45.80
2019-04-22T17:21:01.181Z,45.70
2019-04-22T17:23:29.714Z,45.70
2019-04-22T17:25:58.613Z,45.60
2019-04-22T17:28:27.693Z,45.60
2019-04-22T17:30:57.447Z,45.50
2019-04-22T17:33:26.462Z,45.40
2019-04-22T17:35:55.078Z,45.40
2019-04-22T17:38:30.109Z,45.30
2019-04-22T17:41:07.697Z,45.20
2019-04-22T17:43:54.367Z,45.20
2019-04-22T17:46:15.159Z,45.20
2019-04-22T17:48:53.479Z,45.20
2019-04-22T17:51:28.838Z,45.10
2019-04-22T17:53:57.971Z,45.10
2019-04-22T17:56:27.542Z,45.00
2019-04-22T17:59:09.692Z,45.00
2019-04-22T18:01:28.180Z,45.10
2019-04-22T18:03:41.016Z,45.00
2019-04-22T18:06:09.304Z,45.00
2019-04-22T18:08:50.790Z,45.00
2019-04-22T18:11:29.069Z,44.90
2019-04-22T18:14:00.149Z,44.90
2019-04-22T18:16:25.775Z,44.90
2019-04-22T18:18:53.280Z,44.80
2019-04-22T18:21:25.650Z,44.90
2019-04-22T18:23:43.732Z,44.90
2019-04-22T18:26:20.485Z,44.90
2019-04-22T18:28:54.153Z,44.90
2019-04-22T18:31:17.532Z,45.00
2019-04-22T18:33:50.361Z,45.00
2019-04-22T18:36:19.698Z,45.00
2019-04-22T18:39:02.848Z,44.90
2019-04-22T18:41:18.161Z,44.90
2019-04-22T18:47:32.380Z,44.80
2019-04-22T18:49:59.237Z,45.00
2019-04-22T18:52:43.924Z,45.00
2019-04-22T18:55:26.825Z,44.80
2019-04-22T18:58:02.584Z,44.80
2019-04-22T19:03:53.978Z,44.70
2019-04-22T19:06:42.201Z,44.80
2019-04-22T19:09:10.539Z,44.70
2019-04-22T19:11:40.905Z,44.70
2019-04-22T19:14:12.683Z,44.70
2019-04-22T19:16:36.168Z,44.60
2019-04-22T19:19:27.451Z,44.70
2019-04-22T19:21:32.442Z,45.30
2019-04-22T19:24:02.437Z,44.90
2019-04-22T19:26:44.303Z,44.80
2019-04-22T19:29:10.409Z,44.80
2019-04-22T19:31:34.559Z,44.80
2019-04-22T19:34:06.277Z,44.60
2019-04-22T19:36:41.953Z,44.60
2019-04-22T19:38:59.256Z,44.60
2019-04-22T19:41:38.897Z,44.50
2019-04-22T19:44:08.455Z,44.50
2019-04-22T19:46:34.394Z,44.50
2019-04-22T19:49:11.311Z,44.50
2019-04-22T19:51:47.656Z,44.40
2019-04-22T19:54:01.516Z,44.40
2019-04-22T19:56:26.513Z,44.40
2019-04-22T19:58:57.590Z,44.40
2019-04-22T20:01:38.635Z,44.30
2019-04-22T20:04:15.131Z,44.30
2019-04-22T20:06:42.594Z,44.40
2019-04-22T20:09:21.061Z,44.40
2019-04-22T20:11:45.026Z,44.40
2019-04-22T20:14:19.966Z,44.40
2019-04-22T20:16:39.121Z,44.30
2019-04-22T20:19:21.954Z,44.30
2019-04-22T20:25:16.745Z,44.30
2019-04-22T20:28:01.399Z,44.40
2019-04-22T20:30:28.873Z,44.40
2019-04-22T20:32:56.285Z,44.40
2019-04-22T20:35:33.067Z,44.40
2019-04-22T20:37:56.701Z,44.30
2019-04-22T20:40:31.867Z,44.30
2019-04-22T20:43:04.458Z,44.30
2019-04-22T20:45:30.656Z,44.40
2019-04-22T20:47:50.944Z,44.40
2019-04-22T20:50:31.487Z,44.40
2019-04-22T20:53:06.839Z,44.30
2019-04-22T20:55:25.748Z,44.30
2019-04-22T20:57:57.943Z,44.30
2019-04-22T21:00:23.812Z,44.30
2019-04-22T21:02:50.429Z,44.30
2019-04-22T21:05:26.559Z,44.30
2019-04-22T21:08:02.978Z,44.40
2019-04-22T21:10:22.817Z,44.30
2019-04-22T21:12:56.632Z,44.30
2019-04-22T21:15:31.305Z,44.40
2019-04-22T21:17:57.973Z,44.40
2019-04-22T21:20:34.847Z,44.40
2019-04-22T21:22:58.799Z,44.30
2019-04-22T21:25:20.562Z,44.30
2019-04-22T21:27:58.219Z,44.40
2019-04-22T21:30:26.359Z,44.40
2019-04-22T21:32:57.768Z,44.40
2019-04-22T21:38:06.550Z,44.40
2019-04-22T21:40:27.491Z,44.40
2019-04-22T21:43:02.141Z,44.40
2019-04-22T21:45:25.182Z,44.40
2019-04-22T21:48:07.101Z,44.40
2019-04-22T21:50:43.169Z,44.40
2019-04-22T21:53:00.830Z,44.40
2019-04-22T21:55:31.732Z,44.40
2019-04-22T21:58:26.096Z,44.40
2019-04-22T22:00:54.167Z,44.40
2019-04-22T22:03:19.472Z,44.40
2019-04-22T22:05:40.111Z,44.40
2019-04-22T22:08:23.461Z,44.50
2019-04-22T22:10:45.247Z,44.40
2019-04-22T22:13:20.066Z,45.00
2019-04-22T22:15:47.517Z,44.30
2019-04-22T22:18:12.229Z,44.40
2019-04-22T22:21:01.004Z,44.30
2019-04-22T22:23:25.442Z,44.30
2019-04-22T22:25:43.757Z,44.30
2019-04-22T22:28:38.335Z,44.60
2019-04-22T22:33:16.724Z,44.20
2019-04-22T22:35:45.564Z,44.30
2019-04-22T22:38:19.639Z,44.30
2019-04-22T22:40:29.786Z,44.30
2019-04-22T22:42:58.971Z,44.30
2019-04-22T22:45:33.655Z,44.30
2019-04-22T22:48:24.189Z,44.20
2019-04-22T22:50:46.420Z,44.30
2019-04-22T22:55:46.292Z,44.20
2019-04-22T22:58:19.146Z,44.20
2019-04-22T23:00:47.531Z,44.20
2019-04-22T23:03:41.624Z,44.20
2019-04-22T23:05:54.844Z,44.20
2019-04-22T23:08:20.148Z,44.20
2019-04-22T23:10:55.962Z,44.20
2019-04-22T23:13:22.066Z,44.20
2019-04-22T23:15:42.198Z,44.20
2019-04-22T23:17:56.232Z,44.10
2019-04-22T23:20:30.995Z,44.20
2019-04-22T23:23:14.340Z,44.20
2019-04-22T23:25:51.039Z,44.20
2019-04-22T23:28:16.971Z,44.20
2019-04-22T23:30:56.822Z,44.30
2019-04-22T23:33:37.438Z,44.20
2019-04-22T23:36:03.867Z,44.30
2019-04-22T23:38:47.678Z,44.30
2019-04-22T23:41:40.788Z,44.70
2019-04-22T23:44:07.419Z,44.30
2019-04-22T23:46:28.365Z,44.30
2019-04-22T23:49:02.350Z,44.30
2019-04-22T23:51:32.764Z,44.30
2019-04-22T23:54:11.131Z,44.20
2019-04-22T23:56:32.235Z,44.20
2019-04-22T23:59:09.713Z,44.20
